Time;durP1;ratioP1;P1;durP2;ratioP2;P2;SDS_P1;SDS_P2;PMS_P1;PMS_P2;Temp;Humidity;BMP_temperature;BMP_pressure;BME280_temperature;BME280_humidity;BME280_pressure;Samples;Min_cycle;Max_cycle;Signal;HPM_P1;HPM_P2
2022/08/17 00:01:22;;;;;;;37.53;32.78;;;18.90;99.90;;;;;;5022526;28;20045;-68
2022/08/17 00:03:49;;;;;;;36.90;31.52;;;18.90;99.90;;;;;;5005655;28;20042;-67
2022/08/17 00:06:21;;;;;;;39.38;33.50;;;18.80;99.90;;;;;;5016608;28;20797;-68
2022/08/17 00:08:55;;;;;;;43.78;33.63;;;18.80;99.90;;;;;;5017515;28;20052;-67
2022/08/17 00:11:32;;;;;;;36.20;32.25;;;18.70;99.90;;;;;;5025372;28;20143;-68
2022/08/17 00:14:09;;;;;;;36.75;31.10;;;18.70;99.90;;;;;;5003835;28;20412;-67
2022/08/17 00:16:49;;;;;;;41.13;33.17;;;18.70;99.90;;;;;;5009362;28;20041;-68
2022/08/17 00:19:23;;;;;;;39.75;32.78;;;18.60;99.90;;;;;;5005675;28;20128;-67
2022/08/17 00:21:50;;;;;;;39.05;32.67;;;18.60;99.90;;;;;;5006698;28;20125;-68
2022/08/17 00:24:17;;;;;;;45.38;32.40;;;18.50;99.90;;;;;;5021050;28;20064;-68
2022/08/17 00:26:43;;;;;;;39.35;33.80;;;18.50;99.90;;;;;;4994260;28;20045;-69
2022/08/17 00:29:09;;;;;;;43.80;35.50;;;18.50;99.90;;;;;;5008246;28;20064;-68
2022/08/17 00:31:35;;;;;;;39.05;32.42;;;18.50;99.90;;;;;;5009242;28;20056;-68
2022/08/17 00:34:02;;;;;;;34.10;29.25;;;18.40;99.90;;;;;;5024079;28;20172;-68
2022/08/17 00:36:28;;;;;;;34.67;29.45;;;18.40;99.90;;;;;;5013755;28;20068;-67
2022/08/17 00:38:54;;;;;;;35.33;28.30;;;18.30;99.90;;;;;;5001565;28;20474;-68
2022/08/17 00:41:23;;;;;;;35.20;29.73;;;18.30;99.90;;;;;;5001716;28;20133;-68
2022/08/17 00:43:55;;;;;;;37.38;31.55;;;18.30;99.90;;;;;;4996532;28;20046;-68
2022/08/17 00:46:38;;;;;;;42.95;33.03;;;18.30;99.90;;;;;;4994606;28;20432;-69
2022/08/17 00:49:05;;;;;;;46.92;36.05;;;18.30;99.90;;;;;;5002176;28;20061;-68
2022/08/17 00:51:37;;;;;;;41.55;33.92;;;18.30;99.90;;;;;;5004979;28;20492;-68
2022/08/17 00:54:08;;;;;;;40.75;33.45;;;18.20;99.90;;;;;;5000718;28;20116;-68
2022/08/17 00:56:40;;;;;;;37.53;31.67;;;18.30;99.90;;;;;;4987417;28;20101;-68
2022/08/17 00:59:08;;;;;;;44.30;35.17;;;18.30;99.90;;;;;;5001183;28;20053;-68
2022/08/17 01:01:35;;;;;;;42.60;34.65;;;18.30;99.90;;;;;;5001985;28;20057;-68
2022/08/17 01:04:01;;;;;;;48.45;36.28;;;18.30;99.90;;;;;;4999684;28;20048;-67
2022/08/17 01:06:28;;;;;;;42.67;35.33;;;18.30;99.90;;;;;;4990314;28;20045;-68
2022/08/17 01:08:55;;;;;;;42.92;34.80;;;18.30;99.90;;;;;;4998170;28;20084;-67
2022/08/17 01:11:21;;;;;;;49.47;37.75;;;18.30;99.90;;;;;;5001878;28;20056;-68
2022/08/17 01:13:47;;;;;;;48.60;37.67;;;18.30;99.90;;;;;;4999546;28;20050;-68
2022/08/17 01:16:22;;;;;;;47.08;37.10;;;18.30;99.90;;;;;;4995500;28;20141;-69
2022/08/17 01:18:51;;;;;;;45.28;35.38;;;18.30;99.90;;;;;;4999677;28;20085;-68
2022/08/17 01:21:58;;;;;;;45.00;34.50;;;18.30;99.90;;;;;;5001970;28;20101;-67
2022/08/17 01:24:24;;;;;;;40.45;32.83;;;18.20;99.90;;;;;;4998992;28;20050;-67
2022/08/17 01:26:49;;;;;;;35.33;31.55;;;18.20;99.90;;;;;;4989001;28;20492;-68
2022/08/17 01:29:15;;;;;;;39.35;32.60;;;18.30;99.90;;;;;;5001198;28;20054;-68
2022/08/17 01:31:52;;;;;;;40.95;30.98;;;18.30;99.90;;;;;;5003869;28;20038;-67
2022/08/17 01:34:18;;;;;;;37.20;29.88;;;18.20;99.90;;;;;;4985185;28;20115;-68
2022/08/17 01:36:46;;;;;;;39.42;32.80;;;18.20;99.90;;;;;;4990339;28;20089;-68
2022/08/17 01:39:29;;;;;;;39.53;32.67;;;18.20;99.90;;;;;;4998474;28;20057;-68
2022/08/17 01:42:19;;;;;;;38.03;32.33;;;18.20;99.90;;;;;;5000377;28;20046;-68
2022/08/17 01:44:44;;;;;;;38.38;32.53;;;18.20;99.90;;;;;;4999763;28;20401;-68
2022/08/17 01:47:10;;;;;;;42.22;34.03;;;18.20;99.90;;;;;;4989883;28;20046;-68
2022/08/17 01:49:36;;;;;;;45.00;35.63;;;18.20;99.90;;;;;;5003283;28;20133;-68
2022/08/17 01:52:07;;;;;;;44.92;35.13;;;18.20;99.90;;;;;;5002599;28;20493;-68
2022/08/17 01:54:34;;;;;;;43.28;34.30;;;18.10;99.90;;;;;;5019122;28;20046;-68
2022/08/17 01:56:59;;;;;;;49.15;36.28;;;18.10;99.90;;;;;;4990274;28;20133;-68
2022/08/17 01:59:25;;;;;;;42.25;33.95;;;18.10;99.90;;;;;;5018394;28;20048;-68
2022/08/17 02:01:51;;;;;;;38.13;32.17;;;18.00;99.90;;;;;;5022430;28;20160;-68
2022/08/17 02:04:17;;;;;;;36.95;31.85;;;18.00;99.90;;;;;;5016847;28;20057;-68
2022/08/17 02:06:43;;;;;;;33.33;29.27;;;18.00;99.90;;;;;;5005762;28;20856;-68
2022/08/17 02:09:09;;;;;;;37.85;31.90;;;18.00;99.90;;;;;;5020374;28;20428;-68
2022/08/17 02:11:37;;;;;;;37.05;31.02;;;18.00;99.90;;;;;;5021553;28;20453;-68
2022/08/17 02:14:04;;;;;;;38.78;32.63;;;18.00;99.90;;;;;;5016830;28;20141;-68
2022/08/17 02:16:39;;;;;;;57.53;30.42;;;18.00;99.90;;;;;;5009951;28;20049;-69
2022/08/17 02:19:07;;;;;;;36.55;29.95;;;17.90;99.90;;;;;;5018674;28;20120;-67
2022/08/17 02:21:35;;;;;;;36.10;30.92;;;17.90;99.90;;;;;;5018587;28;20497;-68
2022/08/17 02:24:01;;;;;;;35.42;30.02;;;17.80;99.90;;;;;;5018749;28;20041;-68
2022/08/17 02:26:27;;;;;;;37.72;30.98;;;17.90;99.90;;;;;;5005564;28;20564;-68
2022/08/17 02:28:53;;;;;;;35.15;29.75;;;17.80;99.90;;;;;;5019219;28;20049;-68
2022/08/17 02:31:20;;;;;;;36.80;31.73;;;17.80;99.90;;;;;;5022438;28;20077;-68
2022/08/17 02:33:45;;;;;;;37.65;32.05;;;17.80;99.90;;;;;;5022810;28;20439;-68
2022/08/17 02:36:12;;;;;;;38.65;31.52;;;17.80;99.90;;;;;;5015884;28;20052;-68
2022/08/17 02:38:39;;;;;;;39.78;31.88;;;17.70;99.90;;;;;;5013520;28;20107;-68
2022/08/17 02:41:05;;;;;;;39.13;33.00;;;17.70;99.90;;;;;;5018662;28;20153;-68
2022/08/17 02:43:31;;;;;;;37.22;30.88;;;17.60;99.90;;;;;;5021574;28;20120;-68
2022/08/17 02:45:56;;;;;;;49.90;29.02;;;17.50;99.90;;;;;;5026347;28;20050;-68
2022/08/17 02:48:22;;;;;;;206.57;30.10;;;17.50;99.90;;;;;;4988812;28;20055;-67
2022/08/17 02:50:48;;;;;;;702.58;40.88;;;17.50;99.90;;;;;;5021830;28;20064;-67
2022/08/17 02:53:14;;;;;;;520.92;32.90;;;17.40;99.90;;;;;;5003669;28;20104;-69
2022/08/17 02:55:41;;;;;;;301.73;26.13;;;17.30;99.90;;;;;;5017992;28;20084;-68
2022/08/17 02:58:09;;;;;;;447.20;30.63;;;17.30;99.90;;;;;;5001386;28;20631;-68
2022/08/17 03:00:46;;;;;;;268.23;27.65;;;17.30;99.90;;;;;;5022409;28;20046;-68
2022/08/17 03:03:17;;;;;;;461.10;35.05;;;17.20;99.90;;;;;;5020379;28;20061;-68
2022/08/17 03:05:46;;;;;;;174.32;26.23;;;17.20;99.90;;;;;;5020024;28;20060;-68
2022/08/17 03:08:13;;;;;;;207.43;27.95;;;17.20;99.90;;;;;;5006689;28;20593;-69
2022/08/17 03:10:39;;;;;;;313.50;30.98;;;17.10;99.90;;;;;;5020581;28;20163;-68
2022/08/17 03:13:04;;;;;;;202.85;29.92;;;17.10;99.90;;;;;;5018306;28;20128;-68
2022/08/17 03:15:32;;;;;;;159.48;31.77;;;17.10;99.90;;;;;;5000787;28;20063;-68
2022/08/17 03:18:00;;;;;;;414.02;33.97;;;17.10;99.90;;;;;;5006142;28;20079;-68
2022/08/17 03:20:28;;;;;;;167.73;29.15;;;17.10;99.90;;;;;;5020052;28;20037;-69
2022/08/17 03:22:55;;;;;;;98.85;28.35;;;17.10;99.90;;;;;;5019669;28;20167;-68
2022/08/17 03:25:25;;;;;;;161.10;30.48;;;17.10;99.90;;;;;;5030475;28;20061;-68
2022/08/17 03:27:52;;;;;;;159.15;31.25;;;17.10;99.90;;;;;;4995561;28;20048;-68
2022/08/17 03:30:18;;;;;;;185.65;28.92;;;17.10;99.90;;;;;;5020605;28;20046;-68
2022/08/17 03:32:46;;;;;;;138.70;28.13;;;17.20;99.90;;;;;;5003082;28;20052;-68
2022/08/17 03:35:14;;;;;;;179.40;28.00;;;17.20;99.90;;;;;;5019183;28;20528;-68
2022/08/17 03:37:40;;;;;;;154.60;30.33;;;17.20;99.90;;;;;;5007303;28;20207;-68
2022/08/17 03:40:07;;;;;;;124.95;27.30;;;17.20;99.90;;;;;;5017417;28;20208;-68
2022/08/17 03:42:36;;;;;;;377.40;33.88;;;17.20;99.90;;;;;;5019288;28;20088;-68
2022/08/17 03:45:04;;;;;;;379.90;35.47;;;17.20;99.90;;;;;;5022557;28;20061;-68
2022/08/17 03:58:32;;;;;;;158.63;23.65;;;17.30;99.90;;;;;;5007996;28;20148;-69
2022/08/17 04:00:58;;;;;;;113.07;22.80;;;17.30;99.90;;;;;;5018102;28;20288;-69
2022/08/17 04:03:24;;;;;;;126.25;24.23;;;17.30;99.90;;;;;;5020147;28;20049;-69
2022/08/17 04:05:50;;;;;;;63.80;22.33;;;17.30;99.90;;;;;;5003582;28;20100;-69
2022/08/17 04:08:15;;;;;;;37.25;20.90;;;17.30;99.90;;;;;;4990233;28;20049;-70
2022/08/17 04:10:41;;;;;;;90.50;22.08;;;17.40;99.90;;;;;;5021481;28;20052;-70
2022/08/17 04:13:07;;;;;;;50.58;20.02;;;17.40;99.90;;;;;;5003936;28;20094;-70
2022/08/17 04:15:32;;;;;;;44.55;19.85;;;17.40;99.90;;;;;;5022782;28;20072;-68
2022/08/17 04:17:58;;;;;;;39.58;18.95;;;17.30;99.90;;;;;;5008678;28;20137;-68
2022/08/17 04:20:26;;;;;;;54.95;19.83;;;17.30;99.90;;;;;;5003189;28;20112;-68
2022/08/17 04:23:01;;;;;;;34.63;18.90;;;17.30;99.90;;;;;;5006362;28;20041;-70
2022/08/17 04:25:27;;;;;;;44.35;19.45;;;17.30;99.90;;;;;;5025862;28;20156;-70
2022/08/17 04:27:54;;;;;;;39.42;18.85;;;17.30;99.90;;;;;;5011398;28;20045;-70
2022/08/17 04:30:19;;;;;;;49.17;19.00;;;17.20;99.90;;;;;;5025209;28;20107;-70
2022/08/17 04:32:51;;;;;;;56.67;18.92;;;17.20;99.90;;;;;;5008325;28;20045;-70
2022/08/17 04:35:19;;;;;;;115.07;20.95;;;17.20;99.90;;;;;;5024410;28;20048;-70
2022/08/17 04:37:46;;;;;;;105.18;19.75;;;17.10;99.90;;;;;;5008768;28;20531;-70
2022/08/17 04:43:11;;;;;;;109.40;20.73;;;17.10;99.90;;;;;;5021628;28;20098;-70
2022/08/17 04:45:43;;;;;;;55.33;19.75;;;17.10;99.90;;;;;;5008179;28;20049;-70
2022/08/17 04:48:09;;;;;;;67.72;20.63;;;17.00;99.90;;;;;;5010256;28;20092;-70
2022/08/17 04:50:36;;;;;;;92.43;21.30;;;17.00;99.90;;;;;;5025721;28;20090;-70
2022/08/17 04:53:02;;;;;;;65.80;21.55;;;17.10;99.90;;;;;;5026374;28;20408;-70
2022/08/17 04:55:27;;;;;;;94.60;22.35;;;17.10;99.90;;;;;;5004699;28;20050;-69
2022/08/17 04:57:53;;;;;;;127.38;22.15;;;17.10;99.90;;;;;;4990444;28;20573;-70
2022/08/17 05:00:19;;;;;;;93.82;22.63;;;17.10;99.90;;;;;;5024902;28;20065;-71
2022/08/17 05:02:49;;;;;;;88.20;22.77;;;17.10;99.90;;;;;;4986566;28;20049;-70
2022/08/17 05:05:19;;;;;;;59.75;21.77;;;17.20;99.90;;;;;;5008248;28;20784;-70
2022/08/17 05:07:45;;;;;;;78.82;23.50;;;17.20;99.90;;;;;;5010157;28;20781;-70
2022/08/17 05:10:11;;;;;;;111.20;25.83;;;17.20;99.90;;;;;;5007389;28;20053;-70
2022/08/17 05:12:37;;;;;;;73.32;26.13;;;17.30;99.90;;;;;;5023375;28;20045;-70
2022/08/17 05:15:03;;;;;;;143.60;27.63;;;17.30;99.90;;;;;;5025476;28;20546;-70
2022/08/17 05:17:28;;;;;;;54.00;26.23;;;17.30;99.90;;;;;;4991898;28;20052;-70
2022/08/17 05:19:54;;;;;;;98.82;27.25;;;17.30;99.90;;;;;;5025261;28;20049;-71
2022/08/17 05:22:20;;;;;;;96.50;28.70;;;17.30;99.90;;;;;;5025761;28;20067;-70
2022/08/17 05:24:45;;;;;;;108.97;28.73;;;17.40;99.90;;;;;;5008590;28;20095;-71
2022/08/17 05:27:11;;;;;;;97.40;27.88;;;17.40;99.90;;;;;;5008980;28;20111;-70
2022/08/17 05:29:37;;;;;;;112.25;30.33;;;17.50;99.90;;;;;;5005684;28;20053;-70
2022/08/17 05:32:12;;;;;;;58.10;27.60;;;17.50;99.90;;;;;;5006280;28;20064;-70
2022/08/17 05:34:38;;;;;;;85.10;29.40;;;17.50;99.90;;;;;;4993411;28;20129;-70
2022/08/17 05:37:03;;;;;;;46.58;30.05;;;17.60;99.90;;;;;;4986127;28;20138;-69
2022/08/17 05:39:30;;;;;;;44.45;29.30;;;17.60;99.90;;;;;;4964315;28;20112;-69
2022/08/17 05:41:59;;;;;;;52.08;31.02;;;17.60;99.90;;;;;;4966850;28;20061;-70
2022/08/17 05:44:25;;;;;;;41.65;29.65;;;17.70;99.90;;;;;;5001313;28;20042;-69
2022/08/17 05:46:52;;;;;;;38.90;30.30;;;17.70;99.90;;;;;;4991322;28;20056;-69
2022/08/17 05:49:26;;;;;;;38.97;31.23;;;17.70;99.90;;;;;;5000547;28;20076;-70
2022/08/17 05:52:01;;;;;;;39.35;31.17;;;17.70;99.90;;;;;;5000057;28;20037;-70
2022/08/17 05:54:33;;;;;;;37.47;31.23;;;17.80;99.90;;;;;;5002065;28;20112;-69
2022/08/17 05:57:18;;;;;;;45.40;33.40;;;17.80;99.90;;;;;;4985638;28;20034;-69
2022/08/17 05:59:52;;;;;;;37.58;31.95;;;17.80;99.90;;;;;;4999570;28;20049;-69
2022/08/17 06:02:45;;;;;;;37.05;31.20;;;17.80;99.90;;;;;;4998027;28;20089;-70
2022/08/17 06:05:33;;;;;;;40.55;31.30;;;17.90;99.90;;;;;;5001647;28;20038;-69
2022/08/17 06:08:08;;;;;;;41.88;32.75;;;17.90;99.90;;;;;;4985525;28;20136;-69
2022/08/17 06:10:57;;;;;;;48.45;35.10;;;18.00;99.90;;;;;;4998583;28;20073;-68
2022/08/17 06:13:41;;;;;;;52.25;37.38;;;18.00;99.90;;;;;;4994158;28;20050;-69
2022/08/17 06:16:09;;;;;;;47.50;34.47;;;18.00;99.90;;;;;;4995586;28;21336;-69
2022/08/17 06:18:55;;;;;;;40.97;32.47;;;18.00;99.90;;;;;;4989528;28;20042;-69
2022/08/17 06:21:23;;;;;;;38.28;31.98;;;18.00;99.90;;;;;;4981931;28;20049;-70
2022/08/17 06:23:54;;;;;;;38.17;32.85;;;18.10;99.90;;;;;;4997448;28;20101;-69
2022/08/17 06:26:30;;;;;;;42.50;34.80;;;18.10;99.90;;;;;;4988585;28;20057;-71
2022/08/17 06:29:03;;;;;;;40.97;33.22;;;18.20;99.90;;;;;;4992539;28;20074;-70
2022/08/17 06:31:35;;;;;;;40.63;32.78;;;18.20;99.90;;;;;;5000924;28;20041;-70
2022/08/17 06:34:05;;;;;;;40.83;32.60;;;18.20;99.90;;;;;;4984551;28;20054;-70
2022/08/17 06:37:07;;;;;;;44.60;33.22;;;18.30;99.90;;;;;;4970135;28;20050;-70
2022/08/17 06:39:42;;;;;;;44.97;34.25;;;18.30;99.90;;;;;;4981536;28;20089;-71
2022/08/17 06:42:29;;;;;;;49.83;36.03;;;18.50;99.90;;;;;;4985267;28;20870;-69
2022/08/17 06:45:12;;;;;;;47.28;37.45;;;18.50;99.90;;;;;;4983356;28;20517;-70
2022/08/17 06:47:58;;;;;;;55.78;39.53;;;18.60;99.90;;;;;;4967679;28;20053;-70
2022/08/17 06:50:52;;;;;;;53.08;39.45;;;18.60;99.90;;;;;;4985214;28;20460;-70
2022/08/17 06:53:50;;;;;;;54.53;39.38;;;18.70;99.90;;;;;;4980183;28;20060;-70
2022/08/17 06:56:33;;;;;;;55.50;39.67;;;18.80;99.90;;;;;;4973747;28;20061;-70
2022/08/17 06:59:00;;;;;;;55.85;42.72;;;18.90;99.90;;;;;;4979206;28;20069;-69
2022/08/17 07:01:34;;;;;;;56.55;40.92;;;18.90;99.90;;;;;;4983028;28;20082;-70
2022/08/17 07:04:12;;;;;;;59.53;42.47;;;19.00;99.90;;;;;;4982693;28;20212;-70
2022/08/17 07:06:46;;;;;;;59.35;44.38;;;19.10;99.90;;;;;;4969313;28;20045;-70
2022/08/17 07:09:34;;;;;;;61.97;45.00;;;19.20;99.90;;;;;;4984225;28;20147;-70
2022/08/17 07:12:17;;;;;;;59.63;44.33;;;19.30;99.90;;;;;;4983754;28;20544;-70
2022/08/17 07:14:50;;;;;;;65.47;46.80;;;19.30;99.90;;;;;;4983702;28;20141;-70
2022/08/17 07:17:17;;;;;;;60.40;46.17;;;19.30;99.90;;;;;;4964611;28;20660;-70
2022/08/17 07:19:46;;;;;;;61.35;45.92;;;19.40;99.90;;;;;;4981834;28;20054;-70
2022/08/17 07:22:35;;;;;;;62.47;44.97;;;19.40;99.90;;;;;;4981514;28;20073;-70
2022/08/17 07:25:08;;;;;;;63.17;44.55;;;19.40;99.90;;;;;;4984136;28;20050;-70
2022/08/17 07:27:41;;;;;;;61.05;44.95;;;19.50;99.90;;;;;;4968620;28;20051;-70
2022/08/17 07:30:15;;;;;;;60.17;45.28;;;19.50;99.90;;;;;;4984069;28;20057;-70
2022/08/17 07:32:58;;;;;;;63.03;44.75;;;19.60;99.90;;;;;;4982439;28;20061;-70
2022/08/17 07:35:29;;;;;;;63.10;46.25;;;19.70;99.90;;;;;;4982672;28;20549;-69
2022/08/17 07:38:18;;;;;;;71.03;51.70;;;19.80;99.90;;;;;;4970796;28;20084;-70
2022/08/17 07:40:56;;;;;;;66.63;47.63;;;19.90;99.90;;;;;;4972366;28;20555;-70
2022/08/17 07:43:28;;;;;;;62.45;46.72;;;19.90;99.90;;;;;;4986742;28;20068;-69
2022/08/17 07:48:42;;;;;;;63.00;46.83;;;20.10;99.90;;;;;;4980442;28;20054;-70
2022/08/17 07:51:21;;;;;;;60.25;47.63;;;20.10;99.90;;;;;;4987332;28;20050;-69
2022/08/17 07:53:47;;;;;;;61.38;47.60;;;20.20;99.90;;;;;;4986276;28;20420;-70
2022/08/17 07:56:31;;;;;;;61.03;46.92;;;20.30;99.90;;;;;;4975950;28;20049;-70
2022/08/17 07:59:14;;;;;;;59.33;45.50;;;20.40;99.90;;;;;;4984342;28;20698;-70
2022/08/17 08:01:43;;;;;;;57.97;44.90;;;20.40;99.90;;;;;;4987020;28;20079;-71
2022/08/17 08:04:39;;;;;;;56.35;44.80;;;20.50;99.90;;;;;;4983393;28;20184;-70
2022/08/17 08:07:20;;;;;;;58.92;44.17;;;20.50;99.90;;;;;;4971489;28;20077;-70
2022/08/17 08:10:05;;;;;;;58.55;44.70;;;20.50;99.90;;;;;;4986626;28;20121;-70
2022/08/17 08:12:32;;;;;;;57.60;44.72;;;20.60;99.90;;;;;;4985386;28;20042;-71
2022/08/17 08:15:13;;;;;;;62.80;45.75;;;20.60;99.90;;;;;;4985158;28;20054;-71
2022/08/17 08:17:58;;;;;;;56.25;44.90;;;20.70;99.90;;;;;;4969228;28;20886;-70
2022/08/17 08:20:45;;;;;;;53.13;43.22;;;20.80;99.90;;;;;;4988124;28;20045;-71
2022/08/17 08:23:43;;;;;;;49.95;42.58;;;20.90;99.90;;;;;;4986817;28;20132;-70
2022/08/17 08:26:28;;;;;;;56.45;41.45;;;20.80;99.90;;;;;;4971352;28;20928;-70
2022/08/17 08:29:07;;;;;;;57.08;41.78;;;20.90;99.90;;;;;;4979665;28;20049;-71
2022/08/17 08:31:47;;;;;;;49.45;40.65;;;20.90;99.90;;;;;;4986905;28;20053;-70
2022/08/17 08:34:35;;;;;;;50.33;38.40;;;20.90;99.90;;;;;;4986073;28;20764;-70
2022/08/17 08:37:17;;;;;;;43.95;37.45;;;20.90;99.90;;;;;;4969932;28;20641;-70
2022/08/17 08:40:10;;;;;;;43.45;37.13;;;20.90;99.90;;;;;;5005667;28;20876;-70
2022/08/17 08:42:51;;;;;;;45.45;36.15;;;21.00;99.90;;;;;;5003600;28;20542;-70
2022/08/17 08:45:44;;;;;;;44.03;37.85;;;21.00;99.90;;;;;;5006505;28;20059;-70
2022/08/17 08:48:18;;;;;;;44.42;38.03;;;21.00;99.90;;;;;;4987469;28;20046;-70
2022/08/17 08:51:04;;;;;;;44.17;36.85;;;21.00;99.90;;;;;;5005346;28;20056;-70
2022/08/17 08:54:06;;;;;;;43.95;36.60;;;21.10;99.90;;;;;;5003725;28;20073;-70
2022/08/17 08:56:49;;;;;;;44.40;37.88;;;21.00;99.90;;;;;;4974256;28;20072;-71
2022/08/17 08:59:43;;;;;;;42.17;37.67;;;21.00;99.90;;;;;;5003560;28;20701;-71
2022/08/17 09:02:21;;;;;;;42.70;37.88;;;21.00;99.90;;;;;;5003286;28;21283;-70
2022/08/17 09:05:06;;;;;;;44.42;38.30;;;21.00;99.90;;;;;;4986383;28;20063;-70
2022/08/17 09:08:09;;;;;;;44.20;36.08;;;20.90;99.90;;;;;;4970796;28;20080;-70
2022/08/17 09:10:48;;;;;;;44.35;36.72;;;20.90;99.90;;;;;;4970615;28;20100;-70
2022/08/17 09:13:41;;;;;;;44.67;36.65;;;20.90;99.90;;;;;;5004239;28;20051;-70
2022/08/17 09:16:31;;;;;;;44.45;36.97;;;20.90;99.90;;;;;;5000288;28;20084;-71
2022/08/17 09:19:15;;;;;;;41.83;36.97;;;20.90;99.90;;;;;;4983388;28;20048;-70
2022/08/17 09:22:22;;;;;;;42.70;37.97;;;20.90;99.90;;;;;;4988995;28;20366;-70
2022/08/17 09:25:11;;;;;;;43.55;38.70;;;20.90;99.90;;;;;;4966332;28;20054;-70
2022/08/17 09:28:08;;;;;;;47.55;37.72;;;21.00;99.90;;;;;;4966371;28;20115;-71
2022/08/17 09:30:44;;;;;;;44.60;37.85;;;21.20;99.90;;;;;;4984934;28;20933;-70
2022/08/17 09:33:12;;;;;;;41.42;35.75;;;21.40;99.90;;;;;;4982388;28;20670;-71
2022/08/17 09:35:48;;;;;;;40.83;36.45;;;21.40;99.90;;;;;;4985467;28;20528;-70
2022/08/17 09:38:25;;;;;;;38.65;33.58;;;21.60;99.90;;;;;;4968833;28;20062;-71
2022/08/17 09:41:13;;;;;;;37.63;31.13;;;21.80;99.90;;;;;;4983455;28;20548;-70
2022/08/17 09:44:05;;;;;;;32.45;29.08;;;22.00;99.90;;;;;;4985612;28;20050;-70
2022/08/17 09:46:39;;;;;;;33.85;28.08;;;22.00;99.90;;;;;;4971964;28;20042;-71
2022/08/17 09:49:24;;;;;;;32.05;28.63;;;22.20;99.90;;;;;;4997751;28;20050;-71
2022/08/17 09:52:02;;;;;;;31.45;28.05;;;22.10;99.90;;;;;;4950936;28;20691;-71
2022/08/17 09:54:30;;;;;;;31.20;27.85;;;22.30;99.90;;;;;;4985245;28;20053;-69
2022/08/17 09:57:17;;;;;;;30.55;27.17;;;22.30;99.90;;;;;;4968080;28;20045;-71
2022/08/17 10:00:15;;;;;;;30.20;25.08;;;22.20;99.90;;;;;;4979744;28;20913;-70
2022/08/17 10:02:59;;;;;;;25.80;22.20;;;22.20;99.90;;;;;;4982194;28;20058;-71
2022/08/17 10:06:01;;;;;;;24.92;20.88;;;22.10;99.90;;;;;;4986263;28;20623;-71
2022/08/17 10:08:56;;;;;;;25.95;23.20;;;22.10;99.90;;;;;;4967495;28;20096;-71
2022/08/17 10:12:14;;;;;;;26.65;23.50;;;22.10;99.90;;;;;;4984401;28;21231;-71
2022/08/17 10:14:37;;;;;;;25.65;22.88;;;22.10;99.90;;;;;;4982872;28;20050;-71
2022/08/17 10:17:10;;;;;;;29.88;25.40;;;22.20;99.90;;;;;;4970565;28;20520;-70
2022/08/17 10:20:07;;;;;;;27.90;24.85;;;22.20;99.90;;;;;;4983968;28;20476;-70
2022/08/17 10:26:17;;;;;;;27.55;24.55;;;22.20;99.90;;;;;;5005204;28;20045;-71
2022/08/17 10:28:44;;;;;;;25.83;20.95;;;22.10;99.90;;;;;;4992426;28;20110;-71
2022/08/17 10:31:16;;;;;;;27.70;24.45;;;22.20;99.90;;;;;;4983620;28;20055;-71
2022/08/17 10:34:21;;;;;;;26.02;22.27;;;22.20;99.90;;;;;;4999662;28;22062;-71
2022/08/17 10:37:03;;;;;;;25.17;21.10;;;22.30;99.90;;;;;;4986073;28;21221;-71
2022/08/17 10:39:56;;;;;;;24.08;21.48;;;22.30;99.90;;;;;;5001625;28;20045;-70
2022/08/17 10:42:32;;;;;;;30.67;25.60;;;22.30;99.90;;;;;;4983634;28;20107;-71
2022/08/17 10:45:04;;;;;;;29.63;25.08;;;22.30;99.90;;;;;;5001589;28;20075;-71
2022/08/17 10:47:58;;;;;;;28.73;23.80;;;22.40;99.90;;;;;;4986289;28;20124;-70
2022/08/17 10:50:56;;;;;;;23.92;21.40;;;22.40;99.90;;;;;;5001326;28;20046;-71
2022/08/17 10:53:30;;;;;;;25.70;20.48;;;22.50;99.90;;;;;;5001108;28;20188;-71
2022/08/17 10:56:12;;;;;;;25.73;19.95;;;22.50;99.90;;;;;;5002551;28;20128;-70
2022/08/17 10:58:37;;;;;;;;;;;22.50;99.90;;;;;;4994445;28;20219;-70
2022/08/17 11:01:03;;;;;;;27.73;21.30;;;22.60;99.90;;;;;;4984791;28;19937;-71
2022/08/17 11:03:31;;;;;;;24.05;20.80;;;22.60;99.90;;;;;;5001186;28;20630;-72
2022/08/17 11:06:02;;;;;;;27.35;21.17;;;22.50;99.90;;;;;;5001777;28;20045;-71
2022/08/17 11:09:12;;;;;;;25.83;21.83;;;22.60;99.90;;;;;;4973022;28;20166;-72
2022/08/17 11:11:46;;;;;;;24.27;21.23;;;22.70;99.90;;;;;;5007195;28;21662;-72
2022/08/17 11:14:40;;;;;;;26.92;21.98;;;22.70;99.90;;;;;;5005845;28;20099;-71
2022/08/17 11:17:14;;;;;;;24.42;19.08;;;22.70;99.90;;;;;;4992156;28;20562;-70
2022/08/17 11:20:06;;;;;;;24.45;20.35;;;22.70;99.90;;;;;;5007058;28;20107;-71
2022/08/17 11:22:59;;;;;;;24.95;20.65;;;22.70;99.90;;;;;;5001241;28;20053;-70
2022/08/17 11:25:54;;;;;;;21.83;18.40;;;22.60;99.90;;;;;;5006738;28;20205;-71
2022/08/17 11:28:33;;;;;;;21.83;17.75;;;22.50;99.90;;;;;;4973046;28;20053;-70
2022/08/17 11:31:39;;;;;;;21.15;18.48;;;22.60;99.90;;;;;;4989401;28;20050;-71
2022/08/17 11:34:21;;;;;;;22.65;18.60;;;22.70;99.90;;;;;;5005897;28;20593;-71
2022/08/17 11:36:55;;;;;;;;;;;22.60;99.90;;;;;;4975077;28;20145;-70
2022/08/17 11:39:33;;;;;;;19.17;16.92;;;22.60;99.90;;;;;;4988565;28;19929;-72
2022/08/17 11:42:26;;;;;;;20.42;18.35;;;22.70;99.90;;;;;;5005565;28;20516;-71
2022/08/17 11:44:54;;;;;;;22.17;16.52;;;22.80;99.90;;;;;;5004624;28;20053;-72
2022/08/17 11:53:36;;;;;;;16.73;13.32;;;22.90;99.90;;;;;;4986110;28;20061;-72
2022/08/17 11:56:30;;;;;;;22.33;16.55;;;23.10;99.90;;;;;;4987042;28;20041;-72
2022/08/17 11:58:57;;;;;;;18.42;14.20;;;23.10;99.90;;;;;;4998498;28;20389;-71
2022/08/17 12:01:25;;;;;;;19.02;14.32;;;23.20;99.90;;;;;;5005222;28;20045;-71
2022/08/17 12:03:55;;;;;;;21.42;16.10;;;23.20;99.90;;;;;;5005492;28;20053;-71
2022/08/17 12:06:33;;;;;;;21.40;17.30;;;23.10;99.90;;;;;;4995517;28;20566;-71
2022/08/17 12:09:05;;;;;;;16.67;14.55;;;23.10;99.90;;;;;;5002337;28;20056;-71
2022/08/17 12:11:55;;;;;;;17.35;14.60;;;23.00;99.90;;;;;;5006112;28;20045;-71
2022/08/17 12:14:25;;;;;;;16.63;13.57;;;22.80;99.90;;;;;;5004661;28;20057;-71
2022/08/17 12:17:22;;;;;;;16.08;13.57;;;22.70;99.90;;;;;;4990978;28;20088;-71
2022/08/17 12:19:48;;;;;;;24.58;17.10;;;22.80;99.90;;;;;;4976828;28;20108;-70
2022/08/17 12:22:25;;;;;;;19.77;16.80;;;22.70;99.90;;;;;;4986460;28;20694;-71
2022/08/17 12:25:14;;;;;;;22.23;17.20;;;22.80;99.90;;;;;;4986451;28;20042;-70
2022/08/17 12:27:47;;;;;;;19.92;14.98;;;22.70;99.90;;;;;;4970301;28;20041;-71
2022/08/17 12:30:16;;;;;;;19.58;15.07;;;22.70;99.90;;;;;;4986263;28;20052;-70
2022/08/17 12:32:46;;;;;;;16.50;13.88;;;22.60;99.90;;;;;;4984291;28;20053;-72
2022/08/17 12:35:31;;;;;;;15.10;13.32;;;22.80;99.90;;;;;;4985037;28;20444;-72
2022/08/17 12:37:58;;;;;;;19.80;13.30;;;22.80;99.90;;;;;;4969186;28;20156;-70
2022/08/17 12:40:30;;;;;;;17.15;12.48;;;22.90;99.90;;;;;;4986834;28;20044;-71
2022/08/17 12:43:20;;;;;;;16.75;12.15;;;22.80;99.90;;;;;;4984841;28;20141;-71
2022/08/17 12:45:55;;;;;;;14.43;11.63;;;22.90;99.90;;;;;;4987025;28;20038;-71
2022/08/17 12:48:24;;;;;;;14.13;12.30;;;22.90;99.90;;;;;;4968270;28;20046;-71
2022/08/17 12:50:50;;;;;;;16.77;13.13;;;22.80;99.90;;;;;;4986836;28;20092;-71
2022/08/17 12:53:21;;;;;;;14.75;13.20;;;22.90;99.90;;;;;;4951277;28;20089;-70
2022/08/17 12:55:47;;;;;;;13.82;11.02;;;22.80;99.90;;;;;;4985803;28;20497;-71
2022/08/17 12:58:33;;;;;;;11.75;10.50;;;22.80;99.90;;;;;;4969540;28;20050;-71
2022/08/17 13:01:12;;;;;;;11.52;10.32;;;22.90;99.90;;;;;;4983914;28;20053;-70
2022/08/17 13:03:48;;;;;;;14.20;10.88;;;22.90;99.90;;;;;;4969592;28;20091;-70
2022/08/17 13:06:31;;;;;;;14.10;10.80;;;22.90;99.90;;;;;;4975945;28;20463;-72
2022/08/17 13:09:11;;;;;;;11.27;9.98;;;22.80;99.90;;;;;;4973292;28;20046;-71
2022/08/17 13:11:58;;;;;;;11.05;9.80;;;22.80;99.90;;;;;;4989693;28;20041;-70
2022/08/17 13:14:24;;;;;;;12.88;9.27;;;22.90;99.90;;;;;;5021674;28;20142;-71
2022/08/17 13:17:01;;;;;;;13.52;9.63;;;22.50;99.90;;;;;;4992698;28;20511;-71
2022/08/17 13:19:30;;;;;;;11.77;10.10;;;22.70;99.90;;;;;;5002299;28;20068;-70
2022/08/17 13:21:58;;;;;;;12.30;9.93;;;22.60;99.90;;;;;;5000929;28;20039;-71
2022/08/17 13:24:30;;;;;;;13.57;10.77;;;22.70;99.90;;;;;;5005711;28;20824;-71
2022/08/17 13:27:01;;;;;;;12.02;9.38;;;22.60;99.90;;;;;;4983929;28;20047;-72
2022/08/17 13:29:44;;;;;;;12.45;8.80;;;22.60;99.90;;;;;;5008339;28;20057;-72
2022/08/17 13:32:10;;;;;;;11.73;8.52;;;22.80;99.90;;;;;;4999897;28;20053;-72